Korf, Russia
Current Conditions -  °F | °C
As of 4:00 AM on Saturday 20 Dec 2014 (Local Time) from UHMA Reporting Station
Blowing Snow Blowing Snow  
Wind Chill: -12°   Ceiling: 8000
Heat Index:   Visibility: 6mi
Dew Point:   Wind: 22mph
Humidity: 85%   Direction: 40°NE
Pressure: 29.56"   Gusts: 29mph
Location:  60.32°N, 165.83°E
Report Text: UHMA 191600Z 04010G13MPS 9999 DRSN BKN080 M13/M15 Q1001 RMKQFE747/0996
Loading
Personal Weather Stations






























Interactive Weather Map New forecast layout! Learn more

10-Day Weather Forecast

Advertisements
Track Severe Weather on mobile